CALIFORNIA POLYTECHNIC STATE UNIVERSITY
                               Weekly Meteorological Summary
                            Station: Cal Poly - San Luis Obispo

              T e m p e r a t u r e   Avg   Avg    RH    RH     W  I  N  D            Daily   Seas SolRad        GDDs  Hours Hours Mildew    Min
             Max  Occur  Min  Occur  Temp DewPt   Max   Min   Avg   Max  Gust Occur  Precip Precip   Cal/   ETo  Base   Temp  Temp Stress    Bat
   Date       F    Time   F    Time     F     F     %     %   mph   mph   Dir  Time      In  7/1->    cm2    In   50F 70-85F  >95F    Pts  Volts
------------------------------------------------------------------------------------------------------------------------------------------------
  04/15/17   77.1  1142  47.8  2320  58.8  37.5    90    23   1.6  34.8   NNE   455    0.00   4.67    582  0.17 214.1    2.3   0.0      0    8.8
  04/16/17   66.9  1035  42.7   417  54.5  45.9   100    41   0.7  15.5   WNW  1220    0.01   4.68    455  0.12 129.7    0.0   0.0      0    8.8
  04/19/17   67.1   939  48.1  2135  57.6  47.8    96    51   5.1  7999    SE   810    0.49   5.17    393  0.18 223.1    0.0   0.0      0    8.8
  04/20/17   70.7  1033  48.4   148  59.4  47.6    96    41   4.1 403.7   NNE   813    0.00   5.17    414  0.12 163.3    0.1   0.0      0    8.8
  04/22/17   81.8  1321  48.0  2359  58.1  50.0   100    29   0.3  5045   NNE   520    0.00   5.17    426  0.24 340.1    1.0   0.0      0    8.8
  04/28/17   69.6   838  46.1  2057  56.3  43.8    84    31   0.8  5115   ENE   607    0.00   5.17    390  0.63 525.5    0.0   0.0      0    8.8
  04/29/17   77.8  1017  47.6  2159  61.3  40.4    87    20   2.0 255.3   WSW  1024    0.00   5.17    388  0.12 162.2    2.4   0.0      0    8.8

                                                                                                                                                      
  Avg/Tot    73.0        46.9        58.0  44.7    93    34   2.1  2695                0.50           435  1.58  1758    5.8   0.0            
  Maximum    81.8        48.4        61.3  50.0   100    51   5.1  7999      
  Minimum    66.9        42.7        54.5

================================================================================================================================================

                          CALIFORNIA POLYTECHNIC STATE UNIVERSITY
                            Hourly Meteorological Observations
                            Station: Cal Poly - San Luis Obispo

                   Air DewPt       H o u r l y   Max SolRad        Daily         Daily  Daily Daily     Air
                  Temp  Temp    RH  Wind  Wind  Wind  Watts    ETo   ETo    Prec  Prec   MinT  MaxT  Pressure
     Date  Time      F     F     %   Dir   mph  Gust    /m2     In    In      In    In      F     F    inHg
-----------------------------------------------------------------------------------------------------------
  08/01/17 1400   71.2  55.1    57     W   0.4  11.3    721  0.019  6.55    0.00  0.31   46.2 100.0   29.92
  08/01/17 1300   69.5  54.8    60   WNW   1.9  13.0    824  0.021  6.53    0.00  0.31   46.2 100.0   29.93
  08/01/17 1200   67.0  54.5    64     W   0.0   6.3    620  0.016  6.51    0.00  0.31   46.2 100.0   29.96
  08/01/17 1100   65.1  54.0    67     W   0.1   7.9    490  0.012  6.50    0.00  0.31   46.2 100.0   29.96
  08/01/17 1000   66.1  54.3    65     W   0.2  49.9    637  0.003  6.48    0.00  0.31   46.2 100.0   29.95
  07/31/17 1700   60.2  52.7    76     N   0.0   0.0    249  0.004  6.48    0.00  0.31   46.2 100.0   29.99
  07/31/17 1600   63.6  53.3    69     N   0.0   0.0    425  0.010  6.48    0.00  0.31   46.2 100.0   30.00
  07/31/17 1500   66.6  53.5    63     N   0.0   0.0    592  0.014  6.47    0.00  0.31   46.2 100.0   30.04
  07/31/17 1400   68.1  53.5    60     N   0.0   0.0    731  0.018  6.45    0.00  0.31   46.2 100.0   30.01
  07/31/17 1300   70.1  54.0    56     N   0.0   0.0    821  0.021  6.43    0.00  0.31   46.2 100.0   30.01
  07/31/17 1200   68.8  54.0    59     N   0.0   0.0    854  0.018  6.41    0.00  0.31   46.2 100.0   30.04
  07/30/17 1700   57.8  52.5    83     N   0.0   0.0    274  0.005  6.39    0.00  0.31   46.2 100.0   30.10
  07/30/17 1600   61.3  53.1    74     N   0.0   0.0    446  0.010  6.39    0.00  0.31   46.2 100.0   30.09
  07/30/17 1500   63.0  53.4    71     N   0.0   0.0    611  0.014  6.38    0.00  0.31   46.2 100.0   30.07
  07/30/17 1400   64.7  53.5    67   WNW   0.0   4.6    744  0.018  6.37    0.00  0.31   46.2 100.0   30.12
  07/30/17 1300   68.1  54.4    62   WNW   1.5  13.0    832  0.021  6.35    0.00  0.31   46.2 100.0   30.12
  07/30/17 1200   68.4  54.5    61   WNW   0.5 113.6    867  0.017  6.33    0.00  0.31   46.2 100.0   30.11
  07/29/17 1600   61.8  53.6    74     N   0.0   0.0    432  0.010  6.31    0.00  0.31   46.2 100.0   30.04
  07/29/17 1500   64.3  54.2    70     N   0.0   0.0    600  0.014  6.30    0.00  0.31   46.2 100.0   30.04
  07/29/17 1400   66.0  54.4    66     N   0.0   0.0    733  0.017  6.29    0.00  0.31   46.2 100.0   30.07
  07/28/17 1700   61.4  53.5    75     N   0.0   0.0    240  0.005  6.27    0.00  0.31   46.2 100.0   29.99
  07/28/17 1600   63.8  54.1    71     N   0.0   0.0    427  0.010  6.26    0.00  0.31   46.2 100.0   29.98
  07/28/17 1500   65.4  54.4    68     N   0.0   0.0    595  0.014  6.25    0.00  0.31   46.2 100.0   29.99
  07/28/17 1400   67.8  54.8    63     N   0.0   0.0    730  0.018  6.24    0.00  0.31   46.2 100.0   29.99
  07/28/17 1300   67.9  55.0    63     N   0.0   0.0    818  0.020  6.22    0.00  0.31   46.2 100.0   29.99
  07/28/17 1200   68.5  54.9    62     N   0.0   0.0    854  0.019  6.20    0.00  0.31   46.2 100.0   29.99
  07/27/17 1600   64.2  54.3    70   WNW   0.0   4.6    424  0.010  6.18    0.00  0.31   46.2 100.0   29.98
  07/27/17 1500   66.0  54.5    66   WNW   0.4  12.1    591  0.014  6.17    0.00  0.31   46.2 100.0   29.98
  07/27/17 1400   66.8  54.9    66   WNW   0.3  12.1    726  0.018  6.16    0.00  0.31   46.2 100.0   30.00
  07/27/17 1300   67.0  54.9    65   WNW   3.4  13.0    815  0.020  6.14    0.00  0.31   46.2 100.0   30.02
  07/27/17 1200   68.8  55.1    62   WNW   2.0  84.3    850  0.018  6.12    0.00  0.31   46.2 100.0   30.01
  07/26/17 1600   67.2  55.5    66     N   0.0   0.0    427  0.010  6.10    0.00  0.31   46.2 100.0   30.03
  07/26/17 1500   68.1  55.5    64     N   0.0   0.0    590  0.015  6.09    0.00  0.31   46.2 100.0   30.05
  07/26/17 1400   68.1  55.4    64     N   0.0   0.0    720  0.018  6.08    0.00  0.31   46.2 100.0   30.07
  07/26/17 1300   68.6  55.4    63     N   0.0   0.0    807  0.020  6.06    0.00  0.31   46.2 100.0   30.08
  07/26/17 1200   69.7  55.7    61     N   0.0   0.0    842  0.018  6.04    0.00  0.31   46.2 100.0   30.07
  07/25/17 1600   66.3  53.9    64     N   0.0   0.0    440  0.011  6.02    0.00  0.31   46.2 100.0   30.04
  07/25/17 1500   67.4  53.8    62     N   0.0   0.0    605  0.015  6.01    0.00  0.31   46.2 100.0   30.04
  07/25/17 1400   67.2  54.3    63     N   0.0   0.0    738  0.018  5.99    0.00  0.31   46.2 100.0   30.05
  07/25/17 1300   68.3  54.4    61     N   0.0   0.0    827  0.021  5.98    0.00  0.31   46.2 100.0   30.04
  07/25/17 1200   68.1  54.8    62     N   0.0   0.0    864  0.018  5.96    0.00  0.31   46.2 100.0   30.06
  07/25/17 1100   68.2  55.5    64     N   0.0   0.0    854  0.001  5.94    0.00  0.31   46.2 100.0   30.06
  07/24/17 1500   67.8  56.1    66     N   0.0   0.0    606  0.015  5.93    0.00  0.31   46.2 100.0   29.93
  07/24/17 1400   68.5  55.9    64     N   0.0   0.0    734  0.017  5.92    0.00  0.31   46.2 100.0   29.94
  07/24/17 0800   58.1  53.2    84     W   0.0   2.1    535  0.001  5.90    0.00  0.31   46.2 100.0   29.99
  07/23/17 1600   65.5  54.5    68     N   0.0   0.0    443  0.011  5.90    0.00  0.31   46.2 100.0   29.90
  07/23/17 1500   65.7  54.6    67     N   0.0   0.0    609  0.015  5.89    0.00  0.31   46.2 100.0   29.90
  07/23/17 1400   70.1  55.0    59   WNW   1.4  13.8    744  0.019  5.88    0.00  0.31   46.2 100.0   29.91
  07/23/17 1300   71.7  54.8    55   WNW   0.3  12.1    833  0.022  5.86    0.00  0.31   46.2 100.0   29.92
  07/23/17 1200   69.8  54.2    58   WNW   3.7 226.8    866  0.019  5.84    0.00  0.31   46.2 100.0   29.93
  07/22/17 1600   62.8  52.6    69     W   0.1   9.6    449  0.010  5.82    0.00  0.30   46.2 100.0   29.93
  07/22/17 1500   63.7  52.7    67   WNW   0.6  10.5    609  0.014  5.81    0.00  0.30   46.2 100.0   29.95
  07/22/17 1400   66.0  53.1    63   WNW   1.1  12.1    738  0.018  5.79    0.00  0.30   46.2 100.0   29.96
  07/22/17 1200   68.3  53.4    59   WNW   1.8  70.8    865  0.004  5.78    0.00  0.30   46.2 100.0   29.98
  07/21/17 1700   60.7  52.0    73    SW   0.7  22.2    265  0.005  5.77    0.00  0.30   46.2 100.0   29.99
  07/21/17 1600   64.4  52.3    65   WSW   0.2   9.6    457  0.011  5.77    0.00  0.30   46.2 100.0   29.97
  07/21/17 1500   68.4  51.6    55     W   0.7  10.5    629  0.016  5.76    0.00  0.30   46.2 100.0   30.00
  07/21/17 1400   70.3  52.3    53   WNW   0.0   7.9    767  0.019  5.74    0.00  0.30   46.2 100.0   30.00
  07/21/17 1300   70.4  52.3    53   WNW   0.5  12.1    853  0.022  5.72    0.00  0.30   46.2 100.0   30.02
  07/21/17 1200   70.1  52.5    54   WNW   0.7  52.4    890  0.020  5.70    0.00  0.30   46.2 100.0   30.02
  07/20/17 1600   64.4  52.5    65     N   0.0   0.0    459  0.011  5.68    0.00  0.30   46.2 100.0   30.04
  07/20/17 1500   66.5  53.1    62     N   0.0   0.0    634  0.015  5.67    0.00  0.30   46.2 100.0   30.06
  07/20/17 1400   67.2  53.4    61     N   0.0   0.0    768  0.019  5.65    0.00  0.30   46.2 100.0   30.05
  07/20/17 1300   68.0  53.5    60     N   0.0   0.0    859  0.021  5.63    0.00  0.30   46.2 100.0   30.09
  07/20/17 1200   67.9  53.6    60     N   0.0   0.0    896  0.019  5.61    0.00  0.30   46.2 100.0   30.08
  07/19/17 1700   62.4  52.1    69     N   0.0   0.0    271  0.006  5.59    0.00  0.30   46.2 100.0   30.03
  07/19/17 1600   65.4  52.4    63     N   0.0   0.0    467  0.011  5.59    0.00  0.30   46.2 100.0   30.05
  07/19/17 1500   66.0  52.5    62   WNW   0.2   9.6    642  0.016  5.58    0.00  0.30   46.2 100.0   30.02
  07/19/17 1400   67.4  52.9    60   WNW   0.7  12.1    779  0.019  5.56    0.00  0.30   46.2 100.0   30.05
  07/19/17 1300   67.6  52.5    58   WNW   1.0  12.1    867  0.021  5.54    0.00  0.30   46.2 100.0   30.04
  07/19/17 1200   67.7  52.7    59   WNW   1.9  96.8    900  0.017  5.52    0.00  0.30   46.2 100.0   30.08
  07/18/17 1700   64.4  53.1    67     N   0.0   0.0    262  0.005  5.50    0.00  0.30   46.2 100.0   29.97
  07/18/17 1600   67.8  54.2    62     N   0.0   0.0    450  0.011  5.50    0.00  0.30   46.2 100.0   29.98
  07/18/17 1500   70.2  55.1    59     N   0.0   0.0    618  0.016  5.49    0.00  0.30   46.2 100.0   30.00
  07/18/17 1400   73.7  56.0    54     N   0.0   0.0    754  0.020  5.47    0.00  0.30   46.2 100.0   30.01
  07/18/17 1300   73.6  56.3    55     N   0.0   0.0    840  0.022  5.45    0.00  0.30   46.2 100.0   30.01
  07/18/17 1200   72.6  56.2    56     N   0.0   0.0    874  0.021  5.43    0.00  0.30   46.2 100.0   30.04
  07/17/17 1700   69.1  56.1    63     N   0.0   0.0    261  0.006  5.41    0.00  0.30   46.2 100.0   29.91
  07/17/17 1600   72.7  57.2    58     N   0.0   0.0    449  0.011  5.40    0.00  0.30   46.2 100.0   29.91
  07/17/17 1500   74.5  57.9    56     N   0.0   0.0    617  0.016  5.39    0.00  0.30   46.2 100.0   29.94
  07/17/17 1400   74.9  57.7    55     N   0.0   0.0    752  0.020  5.38    0.00  0.30   46.2 100.0   29.94
  07/17/17 1300   73.4  58.0    58     N   0.0   0.0    838  0.022  5.36    0.00  0.30   46.2 100.0   29.96
  07/17/17 1200   73.8  58.4    58     N   0.0   0.0    872  0.021  5.33    0.00  0.30   46.2 100.0   29.95
  07/16/17 1700   68.3  53.7    60     N   0.0   0.0    249  0.005  5.31    0.00  0.30   46.2 100.0   29.87
  07/16/17 1500   77.5  53.6    44     N   0.0   0.0    614  0.016  5.31    0.00  0.30   46.2 100.0   29.91
  07/16/17 1400   83.2  52.9    35     N   0.0   0.0    749  0.021  5.29    0.00  0.30   46.2 100.0   29.92
  07/16/17 1300   81.9  51.0    34     N   0.0   0.0    840  0.023  5.27    0.00  0.30   46.2 100.0   29.92
  07/16/17 1200   78.1  54.1    43     N   0.0   0.0    871  0.023  5.25    0.00  0.30   46.2 100.0   29.93
  07/16/17 1100   79.5  55.6    44     N   0.0   0.0    793  0.013  5.22    0.00  0.30   46.2 100.0   29.95
  07/15/17 1800   62.3  52.8    71     N   0.0   0.0     63  0.002  5.21    0.00  0.30   46.2 100.0   29.96
  07/15/17 1700   65.6  53.2    64     N   0.0   0.0    206  0.005  5.21    0.00  0.30   46.2 100.0   29.95
  07/15/17 1600   71.3  53.5    53     N   0.0   0.0    504  0.013  5.20    0.00  0.30   46.2 100.0   29.94
  07/15/17 1500   73.7  52.2    47     N   0.0   0.0    605  0.016  5.19    0.00  0.30   46.2 100.0   29.98
  07/15/17 1400   76.0  52.7    44   WNW   0.4  13.0    716  0.019  5.18    0.00  0.30   46.2 100.0   29.99
  07/15/17 1300   78.7  54.0    42     W   0.9  14.7    821  0.023  5.16    0.00  0.30   46.2 100.0   30.01
  07/15/17 1200   75.3  53.4    47   WNW   0.1  10.5    798  0.021  5.13    0.00  0.30   46.2 100.0   30.00
  07/15/17 1100   69.5  53.5    57   WNW   0.6 137.1    822  0.005  5.11    0.00  0.30   46.2 100.0   30.03
  07/14/17 1700   60.9  52.8    75     N   0.0   0.0    272  0.006  5.11    0.00  0.30   46.2 100.0   30.06
  07/14/17 1600   63.7  53.3    69     N   0.0   0.0    456  0.011  5.10    0.00  0.30   46.2 100.0   30.05
  07/14/17 1500   66.7  53.9    63     N   0.0   0.0    627  0.015  5.09    0.00  0.30   46.2 100.0   30.07
  07/14/17 1400   67.5  54.1    62     N   0.0   0.0    761  0.019  5.08    0.00  0.30   46.2 100.0   30.09
  07/14/17 1300   68.3  54.1    60   WNW   0.2  12.1    850  0.021  5.06    0.00  0.30   46.2 100.0   30.09
  07/14/17 1200   68.3  54.1    60   WNW   1.5  98.5    885  0.019  5.04    0.00  0.30   46.2 100.0   30.10
  07/13/17 1800   56.8  52.2    84     N   0.0   0.0     99  0.002  5.02    0.00  0.30   46.2 100.0   30.05
  07/13/17 1700   61.6  53.4    74     N   0.0   0.0    264  0.006  5.01    0.00  0.30   46.2 100.0   30.04
  07/13/17 1600   64.7  54.1    68     N   0.0   0.0    482  0.011  5.01    0.00  0.30   46.2 100.0   30.05
  07/13/17 1500   67.6  54.6    63     N   0.0   0.0    630  0.016  5.00    0.00  0.30   46.2 100.0   30.05
  07/13/17 1400   68.5  54.7    61     N   0.0   0.0    761  0.019  4.98    0.00  0.30   46.2 100.0   30.04
  07/13/17 1300   69.3  54.7    60     N   0.0   0.0    846  0.021  4.96    0.00  0.30   46.2 100.0   30.06
  07/13/17 1200   69.3  54.8    60     N   0.0   0.0    879  0.020  4.94    0.00  0.30   46.2 100.0   30.08
  07/13/17 1100   69.5  55.2    60     N   0.0   0.0    866  0.002  4.92    0.00  0.30   46.2 100.0   30.09
  07/13/17 0900   67.7  54.8    63     N   0.0   0.0    701  0.001  4.92    0.00  0.30   46.2 100.0   30.08
  07/12/17 1700   63.0  53.3    71     N   0.0   0.0    268  0.006  4.92    0.00  0.30   46.2 100.0   30.00
  07/12/17 1600   66.1  53.6    64     N   0.0   0.0    455  0.011  4.91    0.00  0.30   46.2 100.0   30.02
  07/12/17 1500   68.1  53.9    60     N   0.0   0.0    620  0.015  4.90    0.00  0.30   46.2 100.0   30.00
  07/12/17 1400   69.1  54.3    59     N   0.0   0.0    752  0.019  4.88    0.00  0.30   46.2 100.0   30.01
  07/12/17 1300   70.0  54.8    58     N   0.0   0.0    840  0.021  4.87    0.00  0.30   46.2 100.0   30.02
  07/12/17 1200   70.5  55.2    58     N   0.0   0.0    874  0.021  4.84    0.00  0.30   46.2 100.0   30.03
  07/12/17 0900   69.9  56.5    62     N   0.0   0.0    716  0.001  4.82    0.00  0.30   46.2 100.0   30.04
  07/11/17 1700   69.8  57.4    65     N   0.0   0.0    262  0.006  4.82    0.00  0.30   46.2 100.0   30.00
  07/11/17 1500   73.2  57.9    59     N   0.0   0.0    599  0.016  4.82    0.00  0.30   46.2 100.0   30.01
  07/11/17 1400   74.9  57.7    55     N   0.0   0.0    731  0.019  4.80    0.00  0.30   46.2 100.0   30.00
  07/11/17 1300   75.1  56.8    53     N   0.0   0.0    817  0.022  4.78    0.00  0.30   46.2 100.0   30.01
  07/11/17 1200   75.5  56.8    52    NW   8.3 288.0    849  0.007  4.76    0.00  0.30   46.2 100.0   30.01
  07/11/17 0900   75.0  56.8    53   WSW   0.3  26.4    694  0.001  4.75    0.00  0.30   46.2 100.0   30.00
  07/10/17 1700   70.2  54.2    57     N   0.0   0.0    249  0.006  4.75    0.00  0.30   46.2 100.0   29.92
  07/10/17 1600   74.2  54.6    50     N   0.0   0.0    428  0.011  4.75    0.00  0.30   46.2 100.0   29.94
  07/10/17 1500   76.0  54.8    48     N   0.0   0.0    588  0.016  4.74    0.00  0.30   46.2 100.0   29.95
  07/10/17 1400   75.9  54.5    47     N   0.0   0.0    718  0.019  4.72    0.00  0.30   46.2 100.0   29.96
  07/10/17 1300   76.9  54.8    47     N   0.0   0.0    805  0.022  4.70    0.00  0.30   46.2 100.0   29.97
  07/10/17 1200   77.9  55.4    46     W   0.5  10.5    833  0.023  4.68    0.00  0.30   46.2 100.0   29.98
  07/10/17 1100   78.3  56.4    47   WNW   0.1  10.5    822  0.022  4.66    0.00  0.30   46.2 100.0   29.97
  07/10/17 1000   76.2  56.7    51     W   0.1   8.8    741  0.008  4.63    0.00  0.30   46.2 100.0   29.97
  07/09/17 1600   65.2  53.1    65   WNW   0.4  12.1    403  0.009  4.63    0.00  0.30   46.2 100.0   29.94
  07/09/17 1500   69.3  53.7    58     N   0.0   0.0    562  0.014  4.62    0.00  0.30   46.2 100.0   29.97
  07/09/17 1400   70.5  53.7    55     N   0.0   0.0    662  0.017  4.60    0.00  0.30   46.2 100.0   29.97
  07/09/17 1300   70.0  53.7    56     N   0.0   0.0    781  0.020  4.59    0.00  0.30   46.2 100.0   29.98
  07/09/17 1200   68.4  53.4    59   WNW   0.3  27.2    810  0.019  4.57    0.00  0.30   46.2 100.0   29.99
  07/08/17 1700   68.6  51.8    55     N   0.0   0.0    236  0.005  4.55    0.00  0.30   46.2 100.0   29.86
  07/08/17 1600   70.1  52.0    53     N   0.0   0.0    402  0.009  4.54    0.00  0.30   46.2 100.0   29.89
  07/08/17 1500   74.5  51.3    44     N   0.0   0.0    522  0.014  4.53    0.00  0.30   46.2 100.0   29.90
  07/08/17 1400   77.4  51.7    41     N   0.0   0.0    628  0.017  4.52    0.00  0.30   46.2 100.0   29.90
  07/08/17 1300   84.0  49.7    31     N   0.0   0.0    773  0.022  4.50    0.00  0.30   46.2 100.0   29.89
  07/08/17 1200   85.2  46.7    26     N   0.0   0.0    864  0.007  4.48    0.00  0.30   46.2 100.0   29.92
  07/08/17 1000   87.4  49.5    28     N   0.0   0.0    809  0.002  4.47    0.00  0.30   46.2 100.0   29.92
  07/07/17 1700   64.6  52.3    64     N   0.0   0.0    175  0.004  4.47    0.00  0.30   46.2  87.4   29.93
  07/07/17 1500   74.6  52.3    46     N   0.0   0.0    615  0.016  4.47    0.00  0.30   46.2  87.4   29.94
  07/07/17 1400   75.9  52.5    44     N   0.0   0.0    731  0.017  4.45    0.00  0.30   46.2  87.4   29.95
  07/07/17 1200   79.5  51.1    37   WNW   7.8 323.2    864  0.010  4.43    0.00  0.30   46.2  87.4   29.99
  07/06/17 1700   64.2  52.5    66     N   0.0   0.0    266  0.005  4.42    0.00  0.30   46.2  87.4   30.02
  07/06/17 1600   67.7  53.1    59     N   0.0   0.0    440  0.010  4.42    0.00  0.30   46.2  87.4   30.01
  07/06/17 1500   67.7  53.1    59     W   0.1   8.8    598  0.015  4.41    0.00  0.30   46.2  87.4   30.03
  07/06/17 1400   68.9  53.2    57     W   1.8 208.3    726  0.018  4.39    0.00  0.30   46.2  87.4   30.05
  07/06/17 1200   71.9  54.0    53   WSW   0.8 115.3    850  0.004  4.38    0.00  0.30   46.2  87.4   30.06
  07/05/17 1700   62.7  52.4    69     N   0.0   0.0    257  0.005  4.37    0.00  0.30   46.2  87.4   30.02
  07/05/17 1600   65.5  52.7    63     N   0.0   0.0    438  0.010  4.37    0.00  0.30   46.2  87.4   30.01
  07/05/17 1500   68.4  53.1    58     N   0.0   0.0    594  0.015  4.36    0.00  0.30   46.2  87.4   30.05
  07/05/17 1400   68.9  52.8    56     N   0.0   0.0    709  0.017  4.34    0.00  0.30   46.2  87.4   30.04
  07/05/17 1300   69.7  53.2    56     N   0.0   0.0    832  0.003  4.33    0.00  0.30   46.2  87.4   30.06
  07/05/17 1200   72.9  53.9    51     N   0.0   0.0    860  0.002  4.32    0.00  0.30   46.2  87.4   30.07
  07/04/17 1700   59.1  51.5    76   WNW   1.6 231.8    271  0.006  4.32    0.00  0.30   46.2  87.4   30.02
  07/04/17 1600   64.7  52.8    65     N   0.0   0.0    457  0.010  4.32    0.00  0.30   46.2  87.4   30.01
  07/04/17 1500   65.8  52.9    63     N   0.0   0.0    620  0.015  4.31    0.00  0.30   46.2  87.4   30.01
  07/04/17 1400   66.5  52.9    62     N   0.0   0.0    748  0.016  4.29    0.00  0.30   46.2  87.4   30.02
  07/03/17 1700   62.8  52.3    69     N   0.0   0.0    287  0.006  4.28    0.00  0.29   46.2  87.4   30.04
  07/03/17 1600   64.4  52.7    66     N   0.0   0.0    468  0.011  4.27    0.00  0.29   46.2  87.4   30.04
  07/03/17 1500   65.9  53.0    63     N   0.0   0.0    629  0.015  4.26    0.00  0.29   46.2  87.4   30.05
  07/03/17 1400   67.1  53.4    61     N   0.0   0.0    756  0.016  4.24    0.00  0.29   46.2  87.4   30.09
  07/02/17 1700   63.5  52.8    68     N   0.0   0.0    275  0.006  4.23    0.00  0.29   46.2  87.4   30.04